Long Beach, CA (90815)

8:23 PM PST on February 13, 2016 (GMT -0800)
Long Beach | | Change Station
CLOSE
Current Station
Personal Weather Station
Location: Long Beach, CA
Elevation: 20 ft
Nearby Weather Stations
Active Advisory: High Surf Advisory Active Notice: Public Information Statement

Elev 20 ft 33.80 °N, 118.09 °W | Updated 3 minutes ago

Haze
Haze
56.9 °F
Feels Like 56.9 °F
N
0.0
Wind Variable Wind from SSE
Gusts 1.0 mph

Today
High -- | Low -- °F
--% Chance of Precip.
Yesterday
High -- | Low -- °F
Precip. -- in
Pressure 30.04 in
Visibility 6.0 miles
Clouds Clear
Dew Point 53 °F
Humidity 87%
Rainfall 0.00 in
Snow Depth Not available.
6:39 AM 5:34 PM
Waxing Crescent, 37% visible
METAR KLGB 140353Z VRB03KT 6SM HZ CLR 14/11 A3004 RMK AO2 SLP173 T01440111
Pressure 30.04 in
Visibility 6.0 miles
Clouds Clear
Dew Point 53 °F
Humidity 87%
Rainfall 0.00 in
Snow Depth Not available.
6:39 AM 5:34 PM
Waxing Crescent, 37% visible
METAR KLGB 140353Z VRB03KT 6SM HZ CLR 14/11 A3004 RMK AO2 SLP173 T01440111

10-Day Weather Forecast

Almanac

Astronomy

Feb. 13, 2016 Rise Set
Actual Time
Civil Twilight
Nautical Twilight
Astronomical Twilight
Moon
Length of Visible Light
Length of Day
Tomorrow will be .
, % of the Moon is Illuminated

Today's Extremes

State Highs State Lows

Community

WunderPhotos

Upload Photos

1,892,746 photos uploaded!

WunderBlog® & News

Nearby

Air Quality

  Air Quality AQ Index Pollutant
Not available.

Snow Depth

Station Depth Elevation

Earthquake Activity

City Distance Mag. Time & Date
Minimum magnitude displayed is 2.5.

Coastal Water Temperatures

Place Temperature

Stations

Nearby Weather Stations

Station Location Temp. Windchill Dew Point Humidity Wind Precip. Elev Updated Type
                   

Watches & Warnings

High Surf Advisory
Issued: 12:04 PM PST Feb. 13, 2016 – National Weather Service

... High surf advisory remains in effect until noon PST Sunday...

* surf... surf of 5 to 8 feet today will subside to 4 to 7 feet on
Sunday.

* Impacts... large waves and strong rip currents will increase the
risk of ocean drowning. Sneaker waves can suddenly wash people
off of beaches and rock jetties.

* Locations... surf will be highest on exposed west facing beaches.

Precautionary/preparedness actions...

A high surf advisory means that high surf and rip currents will
make swimming and rock jetties dangerous.

Remember... if caught in a rip current... swim parallel to shore
until you are free of the powerful current. Always swim near a
lifeguard.